sensor_id;sensor_type;location;lat;lon;timestamp;pressure;altitude;pressure_sealevel;temperature;humidity
43824;BME280;29470;53.550;9.926;2022-12-19T00:02:11;101903.97;;;-1.81;83.54
43824;BME280;29470;53.550;9.926;2022-12-19T00:07:15;101900.59;;;-1.87;83.33
43824;BME280;29470;53.550;9.926;2022-12-19T00:12:18;101903.09;;;-1.81;83.05
43824;BME280;29470;53.550;9.926;2022-12-19T00:17:25;101893.56;;;-1.76;83.32
43824;BME280;29470;53.550;9.926;2022-12-19T00:22:28;101886.50;;;-1.85;82.69
43824;BME280;29470;53.550;9.926;2022-12-19T00:27:34;101879.66;;;-1.73;82.92
43824;BME280;29470;53.550;9.926;2022-12-19T00:32:38;101866.72;;;-1.87;83.33
43824;BME280;29470;53.550;9.926;2022-12-19T00:37:41;101857.19;;;-1.83;83.88
43824;BME280;29470;53.550;9.926;2022-12-19T00:42:50;101852.66;;;-1.85;84.23
43824;BME280;29470;53.550;9.926;2022-12-19T00:47:55;101859.25;;;-1.80;83.43
43824;BME280;29470;53.550;9.926;2022-12-19T00:52:58;101864.53;;;-1.79;82.93
43824;BME280;29470;53.550;9.926;2022-12-19T00:58:01;101860.19;;;-1.67;83.11
43824;BME280;29470;53.550;9.926;2022-12-19T01:03:05;101850.69;;;-1.62;83.27
43824;BME280;29470;53.550;9.926;2022-12-19T01:08:08;101844.69;;;-1.63;83.25
43824;BME280;29470;53.550;9.926;2022-12-19T01:13:11;101835.16;;;-1.58;82.69
43824;BME280;29470;53.550;9.926;2022-12-19T01:18:16;101838.53;;;-1.52;82.64
43824;BME280;29470;53.550;9.926;2022-12-19T01:23:21;101846.16;;;-1.52;82.35
43824;BME280;29470;53.550;9.926;2022-12-19T01:28:24;101830.00;;;-1.52;82.81
43824;BME280;29470;53.550;9.926;2022-12-19T01:33:28;101817.88;;;-1.60;82.62
43824;BME280;29470;53.550;9.926;2022-12-19T01:38:31;101809.09;;;-1.57;82.98
43824;BME280;29470;53.550;9.926;2022-12-19T01:43:53;101800.84;;;-1.61;82.38
43824;BME280;29470;53.550;9.926;2022-12-19T01:48:58;101800.25;;;-1.53;83.27
43824;BME280;29470;53.550;9.926;2022-12-19T01:54:07;101803.59;;;-1.47;82.98
43824;BME280;29470;53.550;9.926;2022-12-19T01:59:13;101788.31;;;-1.41;82.69
43824;BME280;29470;53.550;9.926;2022-12-19T02:04:20;101782.41;;;-1.35;82.73
43824;BME280;29470;53.550;9.926;2022-12-19T02:09:25;101769.72;;;-1.48;82.60
43824;BME280;29470;53.550;9.926;2022-12-19T02:14:28;101758.44;;;-1.37;82.68
43824;BME280;29470;53.550;9.926;2022-12-19T02:25:35;101747.09;;;-1.33;84.10
43824;BME280;29470;53.550;9.926;2022-12-19T02:31:05;101736.34;;;-1.25;84.96
43824;BME280;29470;53.550;9.926;2022-12-19T02:36:21;101724.84;;;-1.15;85.67
43824;BME280;29470;53.550;9.926;2022-12-19T02:41:33;101723.72;;;-1.30;86.44
43824;BME280;29470;53.550;9.926;2022-12-19T02:46:51;101724.94;;;-1.21;87.22
43824;BME280;29470;53.550;9.926;2022-12-19T02:51:57;101739.88;;;-1.30;87.94
43824;BME280;29470;53.550;9.926;2022-12-19T02:57:06;101737.75;;;-1.27;88.25
43824;BME280;29470;53.550;9.926;2022-12-19T03:02:20;101723.63;;;-1.25;88.96
43824;BME280;29470;53.550;9.926;2022-12-19T03:07:33;101710.91;;;-1.12;89.33
43824;BME280;29470;53.550;9.926;2022-12-19T03:12:42;101703.13;;;-1.13;90.38
43824;BME280;29470;53.550;9.926;2022-12-19T03:17:49;101700.66;;;-1.19;92.37
43824;BME280;29470;53.550;9.926;2022-12-19T03:22:52;101689.91;;;-1.11;93.10
43824;BME280;29470;53.550;9.926;2022-12-19T03:27:58;101692.97;;;-1.13;93.47
43824;BME280;29470;53.550;9.926;2022-12-19T03:33:04;101678.94;;;-1.17;94.89
43824;BME280;29470;53.550;9.926;2022-12-19T03:38:09;101671.22;;;-1.11;95.10
43824;BME280;29470;53.550;9.926;2022-12-19T03:43:15;101669.50;;;-1.05;95.48
43824;BME280;29470;53.550;9.926;2022-12-19T03:48:24;101680.13;;;-1.08;96.34
43824;BME280;29470;53.550;9.926;2022-12-19T03:53:38;101668.56;;;-1.06;97.01
43824;BME280;29470;53.550;9.926;2022-12-19T03:58:47;101647.16;;;-0.87;97.55
43824;BME280;29470;53.550;9.926;2022-12-19T04:03:54;101658.78;;;-0.90;97.80
43824;BME280;29470;53.550;9.926;2022-12-19T04:08:59;101652.13;;;-1.02;99.00
43824;BME280;29470;53.550;9.926;2022-12-19T04:14:05;101637.84;;;-0.94;99.59
43824;BME280;29470;53.550;9.926;2022-12-19T04:19:16;101614.34;;;-0.86;99.57
43824;BME280;29470;53.550;9.926;2022-12-19T04:24:24;101622.69;;;-0.87;99.60
43824;BME280;29470;53.550;9.926;2022-12-19T04:29:30;101616.19;;;-0.85;100.00
43824;BME280;29470;53.550;9.926;2022-12-19T04:34:36;101610.56;;;-0.82;100.00
43824;BME280;29470;53.550;9.926;2022-12-19T04:39:43;101595.47;;;-0.88;100.00
43824;BME280;29470;53.550;9.926;2022-12-19T04:44:46;101582.19;;;-0.72;100.00
43824;BME280;29470;53.550;9.926;2022-12-19T04:49:50;101563.69;;;-0.71;100.00
43824;BME280;29470;53.550;9.926;2022-12-19T04:54:53;101545.13;;;-0.78;100.00
43824;BME280;29470;53.550;9.926;2022-12-19T04:59:56;101548.44;;;-0.71;100.00
43824;BME280;29470;53.550;9.926;2022-12-19T05:05:00;101527.06;;;-0.66;100.00
43824;BME280;29470;53.550;9.926;2022-12-19T05:10:04;101540.34;;;-0.62;100.00
43824;BME280;29470;53.550;9.926;2022-12-19T05:15:08;101537.97;;;-0.67;100.00
43824;BME280;29470;53.550;9.926;2022-12-19T05:20:13;101519.13;;;-0.62;100.00
43824;BME280;29470;53.550;9.926;2022-12-19T05:25:16;101513.00;;;-0.57;100.00
43824;BME280;29470;53.550;9.926;2022-12-19T05:30:19;101497.47;;;-0.46;100.00
43824;BME280;29470;53.550;9.926;2022-12-19T05:35:25;101495.69;;;-0.39;100.00
43824;BME280;29470;53.550;9.926;2022-12-19T05:40:28;101494.09;;;-0.32;100.00
43824;BME280;29470;53.550;9.926;2022-12-19T05:45:31;101490.34;;;-0.21;100.00
43824;BME280;29470;53.550;9.926;2022-12-19T05:50:35;101496.03;;;-0.09;100.00
43824;BME280;29470;53.550;9.926;2022-12-19T05:55:43;101489.53;;;0.01;100.00
43824;BME280;29470;53.550;9.926;2022-12-19T06:00:46;101497.91;;;-0.01;100.00
43824;BME280;29470;53.550;9.926;2022-12-19T06:05:50;101488.66;;;0.00;100.00
43824;BME280;29470;53.550;9.926;2022-12-19T06:10:53;101461.38;;;0.06;100.00
43824;BME280;29470;53.550;9.926;2022-12-19T06:15:57;101456.16;;;0.12;100.00
43824;BME280;29470;53.550;9.926;2022-12-19T06:21:03;101443.59;;;0.06;100.00
43824;BME280;29470;53.550;9.926;2022-12-19T06:26:07;101427.63;;;0.14;100.00
43824;BME280;29470;53.550;9.926;2022-12-19T06:31:20;101445.44;;;0.14;100.00
43824;BME280;29470;53.550;9.926;2022-12-19T06:36:27;101438.94;;;0.31;100.00
43824;BME280;29470;53.550;9.926;2022-12-19T06:41:30;101433.50;;;0.42;100.00
43824;BME280;29470;53.550;9.926;2022-12-19T06:46:51;101420.41;;;0.32;100.00
43824;BME280;29470;53.550;9.926;2022-12-19T06:51:55;101423.19;;;0.63;100.00
43824;BME280;29470;53.550;9.926;2022-12-19T06:56:58;101420.47;;;0.76;100.00
43824;BME280;29470;53.550;9.926;2022-12-19T07:02:11;101423.38;;;0.86;100.00
43824;BME280;29470;53.550;9.926;2022-12-19T07:07:20;101420.09;;;0.87;100.00
43824;BME280;29470;53.550;9.926;2022-12-19T07:12:23;101420.09;;;0.87;100.00
43824;BME280;29470;53.550;9.926;2022-12-19T07:17:28;101421.72;;;0.94;100.00
43824;BME280;29470;53.550;9.926;2022-12-19T07:22:34;101419.59;;;0.82;100.00
43824;BME280;29470;53.550;9.926;2022-12-19T07:27:37;101413.19;;;1.00;100.00
43824;BME280;29470;53.550;9.926;2022-12-19T07:32:40;101404.63;;;1.07;100.00
43824;BME280;29470;53.550;9.926;2022-12-19T07:37:44;101404.97;;;1.10;100.00
43824;BME280;29470;53.550;9.926;2022-12-19T07:42:47;101407.34;;;1.16;100.00
43824;BME280;29470;53.550;9.926;2022-12-19T07:47:50;101402.63;;;1.05;100.00
43824;BME280;29470;53.550;9.926;2022-12-19T07:52:55;101403.16;;;1.24;100.00
43824;BME280;29470;53.550;9.926;2022-12-19T07:57:58;101395.16;;;1.13;100.00
43824;BME280;29470;53.550;9.926;2022-12-19T08:03:01;101397.84;;;1.37;100.00
43824;BME280;29470;53.550;9.926;2022-12-19T08:08:05;101399.47;;;1.36;100.00
43824;BME280;29470;53.550;9.926;2022-12-19T08:13:09;101405.13;;;1.41;100.00
43824;BME280;29470;53.550;9.926;2022-12-19T08:18:12;101402.19;;;1.52;100.00
43824;BME280;29470;53.550;9.926;2022-12-19T08:23:16;101395.75;;;1.63;100.00
43824;BME280;29470;53.550;9.926;2022-12-19T08:28:21;101377.56;;;1.60;100.00
43824;BME280;29470;53.550;9.926;2022-12-19T08:33:24;101372.41;;;1.74;100.00
43824;BME280;29470;53.550;9.926;2022-12-19T08:38:29;101379.00;;;1.65;100.00
43824;BME280;29470;53.550;9.926;2022-12-19T08:43:32;101364.78;;;1.67;100.00
43824;BME280;29470;53.550;9.926;2022-12-19T08:48:35;101370.03;;;1.76;100.00
43824;BME280;29470;53.550;9.926;2022-12-19T08:53:41;101357.50;;;2.01;100.00
43824;BME280;29470;53.550;9.926;2022-12-19T08:58:45;101352.13;;;1.83;100.00
43824;BME280;29470;53.550;9.926;2022-12-19T09:03:48;101352.75;;;2.04;100.00
43824;BME280;29470;53.550;9.926;2022-12-19T09:09:13;101351.19;;;2.20;100.00
43824;BME280;29470;53.550;9.926;2022-12-19T09:14:16;101356.28;;;2.20;100.00
43824;BME280;29470;53.550;9.926;2022-12-19T09:19:21;101352.75;;;2.34;100.00
43824;BME280;29470;53.550;9.926;2022-12-19T09:24:26;101349.31;;;2.27;100.00
43824;BME280;29470;53.550;9.926;2022-12-19T09:29:39;101346.88;;;2.43;100.00
43824;BME280;29470;53.550;9.926;2022-12-19T09:35:18;101341.22;;;2.38;100.00
43824;BME280;29470;53.550;9.926;2022-12-19T09:42:51;101337.69;;;2.21;100.00
43824;BME280;29470;53.550;9.926;2022-12-19T09:47:22;101337.19;;;2.40;100.00
43824;BME280;29470;53.550;9.926;2022-12-19T09:52:30;101333.91;;;2.41;100.00
43824;BME280;29470;53.550;9.926;2022-12-19T10:03:35;101314.75;;;2.45;100.00
43824;BME280;29470;53.550;9.926;2022-12-19T10:08:44;101309.06;;;2.47;100.00
43824;BME280;29470;53.550;9.926;2022-12-19T10:14:40;101311.22;;;2.52;100.00
43824;BME280;29470;53.550;9.926;2022-12-19T10:20:03;101302.25;;;2.55;100.00
43824;BME280;29470;53.550;9.926;2022-12-19T10:25:32;101294.53;;;2.62;100.00
43824;BME280;29470;53.550;9.926;2022-12-19T10:30:42;101291.53;;;2.67;100.00
43824;BME280;29470;53.550;9.926;2022-12-19T10:35:53;101288.84;;;2.65;100.00
43824;BME280;29470;53.550;9.926;2022-12-19T10:41:12;101273.09;;;2.69;100.00
43824;BME280;29470;53.550;9.926;2022-12-19T10:46:22;101277.66;;;2.88;100.00
43824;BME280;29470;53.550;9.926;2022-12-19T10:51:30;101269.66;;;2.85;100.00
43824;BME280;29470;53.550;9.926;2022-12-19T10:56:34;101267.69;;;2.82;100.00
43824;BME280;29470;53.550;9.926;2022-12-19T11:01:40;101255.91;;;2.91;100.00
43824;BME280;29470;53.550;9.926;2022-12-19T11:06:48;101253.84;;;2.96;100.00
43824;BME280;29470;53.550;9.926;2022-12-19T11:12:04;101252.69;;;3.01;100.00
43824;BME280;29470;53.550;9.926;2022-12-19T11:17:36;101254.59;;;2.95;100.00
43824;BME280;29470;53.550;9.926;2022-12-19T11:22:59;101239.00;;;3.17;100.00
43824;BME280;29470;53.550;9.926;2022-12-19T11:28:25;101235.63;;;3.25;100.00
43824;BME280;29470;53.550;9.926;2022-12-19T11:33:55;101226.13;;;3.24;100.00
43824;BME280;29470;53.550;9.926;2022-12-19T11:39:04;101212.94;;;3.28;100.00
43824;BME280;29470;53.550;9.926;2022-12-19T11:44:12;101217.59;;;3.48;100.00
43824;BME280;29470;53.550;9.926;2022-12-19T11:49:26;101205.91;;;3.34;100.00
43824;BME280;29470;53.550;9.926;2022-12-19T11:54:38;101204.50;;;3.54;100.00
43824;BME280;29470;53.550;9.926;2022-12-19T11:59:51;101204.59;;;3.63;100.00
43824;BME280;29470;53.550;9.926;2022-12-19T12:05:23;101201.00;;;3.69;100.00
43824;BME280;29470;53.550;9.926;2022-12-19T12:10:29;101202.38;;;3.75;100.00
43824;BME280;29470;53.550;9.926;2022-12-19T12:15:59;101188.06;;;3.93;100.00
43824;BME280;29470;53.550;9.926;2022-12-19T12:21:28;101186.59;;;4.04;100.00
43824;BME280;29470;53.550;9.926;2022-12-19T12:27:01;101180.16;;;4.16;100.00
43824;BME280;29470;53.550;9.926;2022-12-19T12:32:44;101178.41;;;4.33;100.00
43824;BME280;29470;53.550;9.926;2022-12-19T12:38:29;101174.81;;;4.48;100.00
43824;BME280;29470;53.550;9.926;2022-12-19T12:43:45;101176.38;;;4.64;100.00
43824;BME280;29470;53.550;9.926;2022-12-19T12:48:55;101161.75;;;4.71;100.00
43824;BME280;29470;53.550;9.926;2022-12-19T12:54:04;101155.56;;;4.87;100.00
43824;BME280;29470;53.550;9.926;2022-12-19T12:59:22;101153.75;;;4.86;100.00
43824;BME280;29470;53.550;9.926;2022-12-19T13:04:32;101150.59;;;4.97;100.00
43824;BME280;29470;53.550;9.926;2022-12-19T13:09:40;101131.31;;;5.01;100.00
43824;BME280;29470;53.550;9.926;2022-12-19T13:14:52;101133.56;;;5.15;100.00
43824;BME280;29470;53.550;9.926;2022-12-19T13:19:56;101140.22;;;4.96;100.00
43824;BME280;29470;53.550;9.926;2022-12-19T13:31:18;101121.34;;;5.22;100.00
43824;BME280;29470;53.550;9.926;2022-12-19T13:36:48;101127.81;;;5.27;100.00
43824;BME280;29470;53.550;9.926;2022-12-19T13:42:14;101125.69;;;5.31;100.00
43824;BME280;29470;53.550;9.926;2022-12-19T13:47:41;101131.66;;;5.50;100.00
43824;BME280;29470;53.550;9.926;2022-12-19T13:52:47;101134.97;;;5.57;100.00
43824;BME280;29470;53.550;9.926;2022-12-19T13:57:52;101137.53;;;5.57;100.00
43824;BME280;29470;53.550;9.926;2022-12-19T14:02:57;101132.38;;;5.66;100.00
43824;BME280;29470;53.550;9.926;2022-12-19T14:08:04;101137.25;;;5.54;100.00
43824;BME280;29470;53.550;9.926;2022-12-19T14:13:12;101129.56;;;5.54;100.00
43824;BME280;29470;53.550;9.926;2022-12-19T14:18:55;101102.91;;;5.80;100.00
43824;BME280;29470;53.550;9.926;2022-12-19T14:24:08;101110.03;;;5.65;100.00
43824;BME280;29470;53.550;9.926;2022-12-19T14:29:13;101120.88;;;5.80;100.00
43824;BME280;29470;53.550;9.926;2022-12-19T14:34:34;101113.91;;;5.79;100.00
43824;BME280;29470;53.550;9.926;2022-12-19T14:39:58;101121.56;;;5.88;100.00
43824;BME280;29470;53.550;9.926;2022-12-19T14:45:34;101130.03;;;5.87;100.00
43824;BME280;29470;53.550;9.926;2022-12-19T14:51:11;101124.91;;;5.87;100.00
43824;BME280;29470;53.550;9.926;2022-12-19T14:56:42;101124.88;;;5.96;100.00
43824;BME280;29470;53.550;9.926;2022-12-19T15:02:09;101118.00;;;6.14;100.00
43824;BME280;29470;53.550;9.926;2022-12-19T15:07:31;101104.88;;;6.11;100.00
43824;BME280;29470;53.550;9.926;2022-12-19T15:12:47;101107.44;;;6.39;100.00
43824;BME280;29470;53.550;9.926;2022-12-19T15:18:36;101099.84;;;6.21;100.00
43824;BME280;29470;53.550;9.926;2022-12-19T15:23:42;101097.81;;;6.08;100.00
43824;BME280;29470;53.550;9.926;2022-12-19T15:28:47;101095.66;;;6.13;100.00
43824;BME280;29470;53.550;9.926;2022-12-19T15:33:51;101093.19;;;6.23;100.00
43824;BME280;29470;53.550;9.926;2022-12-19T15:39:15;101098.16;;;6.22;100.00
43824;BME280;29470;53.550;9.926;2022-12-19T15:44:22;101090.97;;;6.17;100.00
43824;BME280;29470;53.550;9.926;2022-12-19T15:49:27;101087.69;;;6.29;100.00
43824;BME280;29470;53.550;9.926;2022-12-19T15:54:33;101077.75;;;6.42;100.00
43824;BME280;29470;53.550;9.926;2022-12-19T15:59:49;101073.25;;;6.40;100.00
43824;BME280;29470;53.550;9.926;2022-12-19T16:04:53;101064.78;;;6.60;100.00
43824;BME280;29470;53.550;9.926;2022-12-19T16:10:07;101068.34;;;6.71;100.00
43824;BME280;29470;53.550;9.926;2022-12-19T16:15:14;101058.41;;;6.84;100.00
43824;BME280;29470;53.550;9.926;2022-12-19T16:20:19;101050.91;;;6.77;100.00
43824;BME280;29470;53.550;9.926;2022-12-19T16:25:29;101055.00;;;6.75;100.00
43824;BME280;29470;53.550;9.926;2022-12-19T16:30:34;101043.84;;;6.85;100.00
43824;BME280;29470;53.550;9.926;2022-12-19T16:35:39;101036.50;;;6.79;100.00
43824;BME280;29470;53.550;9.926;2022-12-19T16:41:18;101039.16;;;6.70;100.00
43824;BME280;29470;53.550;9.926;2022-12-19T16:46:23;101037.63;;;6.72;100.00
43824;BME280;29470;53.550;9.926;2022-12-19T16:51:31;101047.50;;;6.68;100.00
43824;BME280;29470;53.550;9.926;2022-12-19T16:56:37;101044.28;;;6.70;100.00
43824;BME280;29470;53.550;9.926;2022-12-19T17:01:42;101038.25;;;6.99;100.00
43824;BME280;29470;53.550;9.926;2022-12-19T17:06:45;101033.53;;;7.04;100.00
43824;BME280;29470;53.550;9.926;2022-12-19T17:11:51;101032.78;;;7.05;100.00
43824;BME280;29470;53.550;9.926;2022-12-19T17:16:55;101034.31;;;7.03;100.00
43824;BME280;29470;53.550;9.926;2022-12-19T17:22:00;101037.72;;;6.93;100.00
43824;BME280;29470;53.550;9.926;2022-12-19T17:27:04;101037.66;;;6.83;100.00
43824;BME280;29470;53.550;9.926;2022-12-19T17:32:09;101042.88;;;6.93;100.00
43824;BME280;29470;53.550;9.926;2022-12-19T17:37:23;101032.31;;;6.90;100.00
43824;BME280;29470;53.550;9.926;2022-12-19T17:42:28;101042.59;;;6.90;100.00
43824;BME280;29470;53.550;9.926;2022-12-19T17:47:38;101036.78;;;6.82;100.00
43824;BME280;29470;53.550;9.926;2022-12-19T17:52:40;101039.69;;;6.76;100.00
43824;BME280;29470;53.550;9.926;2022-12-19T17:57:45;101038.31;;;6.61;100.00
43824;BME280;29470;53.550;9.926;2022-12-19T18:02:49;101046.31;;;6.83;100.00
43824;BME280;29470;53.550;9.926;2022-12-19T18:07:54;101032.84;;;6.67;100.00
43824;BME280;29470;53.550;9.926;2022-12-19T18:12:58;101046.44;;;6.85;100.00
43824;BME280;29470;53.550;9.926;2022-12-19T18:18:01;101028.88;;;6.70;100.00
43824;BME280;29470;53.550;9.926;2022-12-19T18:23:12;101035.88;;;6.82;100.00
43824;BME280;29470;53.550;9.926;2022-12-19T18:28:18;101031.03;;;6.66;100.00
43824;BME280;29470;53.550;9.926;2022-12-19T18:33:22;101016.28;;;6.73;100.00
43824;BME280;29470;53.550;9.926;2022-12-19T18:38:25;101024.81;;;6.83;100.00
43824;BME280;29470;53.550;9.926;2022-12-19T18:43:29;101023.78;;;6.81;100.00
43824;BME280;29470;53.550;9.926;2022-12-19T18:48:35;101016.72;;;6.78;100.00
43824;BME280;29470;53.550;9.926;2022-12-19T18:53:38;101023.16;;;6.83;100.00
43824;BME280;29470;53.550;9.926;2022-12-19T18:58:42;101040.25;;;6.83;100.00
43824;BME280;29470;53.550;9.926;2022-12-19T19:03:49;101040.22;;;7.02;100.00
43824;BME280;29470;53.550;9.926;2022-12-19T19:08:54;101033.78;;;6.97;100.00
43824;BME280;29470;53.550;9.926;2022-12-19T19:14:26;101033.34;;;6.92;100.00
43824;BME280;29470;53.550;9.926;2022-12-19T19:19:29;101032.13;;;7.07;100.00
43824;BME280;29470;53.550;9.926;2022-12-19T19:24:32;101032.09;;;6.97;100.00
43824;BME280;29470;53.550;9.926;2022-12-19T19:29:36;101029.56;;;7.07;100.00
43824;BME280;29470;53.550;9.926;2022-12-19T19:34:39;101041.78;;;7.10;100.00
43824;BME280;29470;53.550;9.926;2022-12-19T19:39:43;101026.56;;;6.92;100.00
43824;BME280;29470;53.550;9.926;2022-12-19T19:44:47;101020.88;;;7.26;100.00
43824;BME280;29470;53.550;9.926;2022-12-19T19:49:49;101019.84;;;7.24;100.00
43824;BME280;29470;53.550;9.926;2022-12-19T19:54:52;101009.91;;;7.69;100.00
43824;BME280;29470;53.550;9.926;2022-12-19T19:59:56;101018.97;;;7.44;100.00
43824;BME280;29470;53.550;9.926;2022-12-19T20:04:59;101030.19;;;7.45;100.00
43824;BME280;29470;53.550;9.926;2022-12-19T20:10:03;101021.84;;;7.68;100.00
43824;BME280;29470;53.550;9.926;2022-12-19T20:15:08;101032.03;;;7.66;100.00
43824;BME280;29470;53.550;9.926;2022-12-19T20:20:11;101035.75;;;7.60;100.00
43824;BME280;29470;53.550;9.926;2022-12-19T20:25:15;101033.47;;;7.23;100.00
43824;BME280;29470;53.550;9.926;2022-12-19T20:30:19;101047.38;;;7.25;100.00
43824;BME280;29470;53.550;9.926;2022-12-19T20:35:23;101027.97;;;7.39;100.00
43824;BME280;29470;53.550;9.926;2022-12-19T20:40:26;101025.53;;;7.30;100.00
43824;BME280;29470;53.550;9.926;2022-12-19T20:45:31;101013.03;;;7.35;100.00
43824;BME280;29470;53.550;9.926;2022-12-19T20:50:34;101009.97;;;7.39;100.00
43824;BME280;29470;53.550;9.926;2022-12-19T20:55:50;101025.16;;;7.46;100.00
43824;BME280;29470;53.550;9.926;2022-12-19T21:01:04;101012.94;;;7.44;100.00
43824;BME280;29470;53.550;9.926;2022-12-19T21:06:09;101013.75;;;7.53;100.00
43824;BME280;29470;53.550;9.926;2022-12-19T21:11:13;101024.25;;;7.35;100.00
43824;BME280;29470;53.550;9.926;2022-12-19T21:16:19;101048.25;;;7.26;100.00
43824;BME280;29470;53.550;9.926;2022-12-19T21:21:26;101036.16;;;7.25;100.00
43824;BME280;29470;53.550;9.926;2022-12-19T21:26:29;101062.34;;;7.00;100.00
43824;BME280;29470;53.550;9.926;2022-12-19T21:31:33;101042.91;;;7.03;100.00
43824;BME280;29470;53.550;9.926;2022-12-19T21:36:36;101044.13;;;6.88;100.00
43824;BME280;29470;53.550;9.926;2022-12-19T21:41:40;101045.53;;;6.84;100.00
43824;BME280;29470;53.550;9.926;2022-12-19T21:46:44;101034.22;;;6.82;100.00
43824;BME280;29470;53.550;9.926;2022-12-19T21:51:47;101038.66;;;6.74;100.00
43824;BME280;29470;53.550;9.926;2022-12-19T21:56:49;101044.38;;;6.61;100.00
43824;BME280;29470;53.550;9.926;2022-12-19T22:01:54;101030.44;;;6.49;100.00
43824;BME280;29470;53.550;9.926;2022-12-19T22:06:57;101023.00;;;6.52;100.00
43824;BME280;29470;53.550;9.926;2022-12-19T22:12:00;101014.84;;;6.47;100.00
43824;BME280;29470;53.550;9.926;2022-12-19T22:17:04;101019.00;;;6.56;100.00
43824;BME280;29470;53.550;9.926;2022-12-19T22:22:07;101014.34;;;6.71;100.00
43824;BME280;29470;53.550;9.926;2022-12-19T22:27:10;101009.06;;;6.69;100.00
43824;BME280;29470;53.550;9.926;2022-12-19T22:32:14;101004.47;;;6.75;100.00
43824;BME280;29470;53.550;9.926;2022-12-19T22:37:18;101007.41;;;6.99;100.00
43824;BME280;29470;53.550;9.926;2022-12-19T22:42:21;101007.50;;;6.90;100.00
43824;BME280;29470;53.550;9.926;2022-12-19T22:47:25;101015.38;;;7.02;100.00
43824;BME280;29470;53.550;9.926;2022-12-19T22:52:27;101029.41;;;6.96;100.00
43824;BME280;29470;53.550;9.926;2022-12-19T22:57:30;101030.59;;;6.80;100.00
43824;BME280;29470;53.550;9.926;2022-12-19T23:02:37;101020.31;;;6.61;100.00
43824;BME280;29470;53.550;9.926;2022-12-19T23:07:40;101019.94;;;6.56;100.00
43824;BME280;29470;53.550;9.926;2022-12-19T23:12:43;101013.75;;;6.54;100.00
43824;BME280;29470;53.550;9.926;2022-12-19T23:17:47;101000.25;;;6.57;100.00
43824;BME280;29470;53.550;9.926;2022-12-19T23:22:50;101002.50;;;6.62;100.00
43824;BME280;29470;53.550;9.926;2022-12-19T23:27:52;101000.06;;;6.45;100.00
43824;BME280;29470;53.550;9.926;2022-12-19T23:32:57;101004.69;;;6.68;100.00
43824;BME280;29470;53.550;9.926;2022-12-19T23:38:01;101002.66;;;6.74;100.00
43824;BME280;29470;53.550;9.926;2022-12-19T23:43:04;101008.19;;;6.69;100.00
43824;BME280;29470;53.550;9.926;2022-12-19T23:48:08;100995.66;;;6.63;100.00
43824;BME280;29470;53.550;9.926;2022-12-19T23:53:11;100987.56;;;6.58;100.00
43824;BME280;29470;53.550;9.926;2022-12-19T23:58:14;101000.84;;;6.73;100.00
